N72ME KMQI-KFFA
Flight info
| Callsign | N72ME |
|---|---|
| Flight time | 0h -2m |
| Altitude | 1500 |
| Route | DIRECT |
| Aircraft | C170/L-VGD/C |
Departure
| Time | 2026-05-09 00:41 |
|---|---|
| Airport | Dare County Regional Airport (KMQI) |
Arrival
| Time | 2026-05-09 00:39 |
|---|---|
| Airport | First Flight Airport (KFFA) |
| Time | Latitude | Longitude | Altitude | Speed | Heading |
|---|---|---|---|---|---|
| 2026-05-09 00:39 | 35.91666 | -75.70233 | 16 ft | 0 kts | 359° |
| 2026-05-09 00:39 | 35.91657 | -75.70215 | 16 ft | 9 kts | 129° |
| 2026-05-09 00:39 | 35.91615 | -75.70107 | 16 ft | 18 kts | 131° |
| 2026-05-09 00:39 | 35.91522 | -75.70056 | 16 ft | 8 kts | 129° |
| 2026-05-09 00:40 | 35.91501 | -75.69978 | 17 ft | 15 kts | 45° |
| 2026-05-09 00:40 | 35.91733 | -75.69753 | 19 ft | 67 kts | 39° |
| 2026-05-09 00:40 | 35.92123 | -75.69375 | 170 ft | 68 kts | 39° |
| 2026-05-09 00:41 | 35.92861 | -75.68689 | 497 ft | 67 kts | 36° |
| 2026-05-09 00:41 | 35.93260 | -75.68346 | 619 ft | 74 kts | 40° |
| 2026-05-09 00:41 | 35.93584 | -75.67847 | 767 ft | 76 kts | 67° |
| 2026-05-09 00:41 | 35.93854 | -75.67283 | 978 ft | 77 kts | 68° |
| 2026-05-09 00:42 | 35.94141 | -75.66708 | 1153 ft | 81 kts | 68° |
| 2026-05-09 00:42 | 35.94442 | -75.66084 | 1261 ft | 87 kts | 66° |
| 2026-05-09 00:42 | 35.94794 | -75.65502 | 1436 ft | 90 kts | 60° |
| 2026-05-09 00:42 | 35.95161 | -75.64858 | 1508 ft | 94 kts | 62° |
| 2026-05-09 00:43 | 35.95629 | -75.64254 | 1501 ft | 104 kts | 23° |
| 2026-05-09 00:43 | 35.96346 | -75.64380 | 1498 ft | 107 kts | 336° |
| 2026-05-09 00:43 | 35.97065 | -75.64733 | 1395 ft | 114 kts | 336° |
| 2026-05-09 00:43 | 35.97802 | -75.65089 | 1275 ft | 114 kts | 338° |
| 2026-05-09 00:44 | 35.98552 | -75.65427 | 1171 ft | 114 kts | 339° |
| 2026-05-09 00:44 | 35.99291 | -75.65737 | 1123 ft | 112 kts | 342° |
| 2026-05-09 00:44 | 36.00033 | -75.66043 | 981 ft | 112 kts | 339° |
| 2026-05-09 00:44 | 36.00762 | -75.66360 | 910 ft | 110 kts | 340° |
| 2026-05-09 00:45 | 36.01477 | -75.66691 | 822 ft | 108 kts | 329° |
| 2026-05-09 00:45 | 36.01975 | -75.67301 | 851 ft | 97 kts | 294° |
| 2026-05-09 00:45 | 36.01942 | -75.68006 | 912 ft | 79 kts | 223° |
| 2026-05-09 00:45 | 36.01497 | -75.68401 | 869 ft | 81 kts | 206° |
| 2026-05-09 00:46 | 36.01000 | -75.68764 | 803 ft | 86 kts | 205° |
| 2026-05-09 00:46 | 36.00496 | -75.69090 | 753 ft | 75 kts | 204° |
| 2026-05-09 00:46 | 36.00201 | -75.69274 | 752 ft | 69 kts | 202° |
| 2026-05-09 00:46 | 35.99835 | -75.69149 | 680 ft | 66 kts | 102° |
| 2026-05-09 00:47 | 36.00097 | -75.68613 | 497 ft | 76 kts | 66° |
| 2026-05-09 00:47 | 36.00334 | -75.68037 | 382 ft | 74 kts | 46° |
| 2026-05-09 00:47 | 36.00685 | -75.67590 | 281 ft | 67 kts | 37° |
| 2026-05-09 00:47 | 36.01090 | -75.67381 | 112 ft | 62 kts | 15° |
| 2026-05-09 00:48 | 36.01478 | -75.67254 | 16 ft | 49 kts | 14° |
| 2026-05-09 00:48 | 36.01678 | -75.67188 | 17 ft | 2 kts | 13° |
| 2026-05-09 00:48 | 36.01685 | -75.67185 | 17 ft | 1 kts | 86° |
| 2026-05-09 00:48 | 36.01633 | -75.67201 | 15 ft | 16 kts | 197° |
| 2026-05-09 00:49 | 36.01513 | -75.67241 | 15 ft | 18 kts | 195° |
| 2026-05-09 00:49 | 36.01470 | -75.67218 | 17 ft | 5 kts | 125° |
| 2026-05-09 00:49 | 36.01412 | -75.67215 | 18 ft | 8 kts | 135° |
| 2026-05-09 00:49 | 36.01389 | -75.67197 | 18 ft | 0 kts | 7° |